Time;durP1;ratioP1;P1;durP2;ratioP2;P2;SDS_P1;SDS_P2;PMS_P1;PMS_P2;Temp;Humidity;BMP_temperature;BMP_pressure;BME280_temperature;BME280_humidity;BME280_pressure;Samples;Min_cycle;Max_cycle;Signal;HPM_P1;HPM_P2
2022/11/24 00:06:31;;;;;;;4.73;1.03;;;;;;;5.51;100.00;97279.63;18248286;32;20102;-63
2022/11/24 00:16:47;;;;;;;3.10;1.00;;;;;;;5.56;100.00;97277.88;18248495;32;20051;-64
2022/11/24 00:26:51;;;;;;;3.27;1.00;;;;;;;5.37;100.00;97285.38;18248309;32;20051;-64
2022/11/24 00:36:54;;;;;;;3.90;0.80;;;;;;;5.12;100.00;97290.34;18248028;32;20074;-64
2022/11/24 00:46:57;;;;;;;3.77;0.87;;;;;;;4.78;100.00;97288.44;18233098;32;20382;-65
2022/11/24 00:57:00;;;;;;;4.90;1.20;;;;;;;4.52;100.00;97304.06;18245711;32;20078;-64
2022/11/24 01:07:02;;;;;;;3.77;1.00;;;;;;;4.35;100.00;97322.75;18244849;32;20054;-64
2022/11/24 01:17:05;;;;;;;3.90;0.80;;;;;;;4.18;100.00;97324.53;18243899;32;20085;-65
2022/11/24 01:27:08;;;;;;;4.27;1.00;;;;;;;4.07;100.00;97339.59;18230389;32;20390;-64
2022/11/24 01:37:11;;;;;;;4.10;0.80;;;;;;;3.99;100.00;97340.78;18243268;32;20070;-64
2022/11/24 01:47:33;;;;;;;4.43;0.80;;;;;;;3.99;100.00;97350.66;18228664;32;20057;-64
2022/11/24 01:57:43;;;;;;;3.30;0.80;;;;;;;3.87;100.00;97372.88;18242389;32;20062;-64
2022/11/24 02:07:47;;;;;;;5.20;0.80;;;;;;;3.77;100.00;97374.50;18241755;32;20050;-64
2022/11/24 02:17:50;;;;;;;4.23;0.97;;;;;;;3.68;100.00;97374.88;18227596;32;20482;-64
2022/11/24 02:27:54;;;;;;;3.80;0.77;;;;;;;3.63;100.00;97373.94;18227400;32;20076;-64
2022/11/24 02:37:57;;;;;;;2.40;0.70;;;;;;;3.60;100.00;97364.50;18240894;32;20054;-64
2022/11/24 02:48:20;;;;;;;3.30;0.80;;;;;;;3.49;100.00;97346.63;17922048;33;20388;-64
2022/11/24 02:58:22;;;;;;;5.53;0.60;;;;;;;3.35;100.00;97344.16;17921724;33;20576;-64
2022/11/24 03:08:25;;;;;;;4.67;1.43;;;;;;;3.28;100.00;97332.78;17921308;33;20079;-64
2022/11/24 03:18:27;;;;;;;4.57;0.80;;;;;;;3.18;100.00;97348.56;17966624;32;20434;-64
2022/11/24 03:28:30;;;;;;;3.30;0.70;;;;;;;3.08;100.00;97359.00;18177160;32;20352;-64
2022/11/24 03:38:33;;;;;;;3.17;0.77;;;;;;;3.03;100.00;97373.88;18178468;32;20066;-64
2022/11/24 03:48:43;;;;;;;3.50;1.00;;;;;;;3.02;100.00;97382.09;18188166;32;20081;-64
2022/11/24 03:58:46;;;;;;;3.67;0.73;;;;;;;3.03;100.00;97375.75;18187387;32;20062;-64
2022/11/24 04:08:49;;;;;;;3.00;0.90;;;;;;;3.15;100.00;97386.44;18227890;32;20050;-64
2022/11/24 04:18:52;;;;;;;1.53;0.80;;;;;;;3.23;100.00;97412.81;18234764;32;20046;-64
2022/11/24 04:28:54;;;;;;;2.77;0.70;;;;;;;3.22;100.00;97432.56;18248355;32;20058;-64
2022/11/24 04:38:57;;;;;;;2.50;0.90;;;;;;;3.47;100.00;97432.37;18247234;32;20068;-64
2022/11/24 04:49:20;;;;;;;3.43;1.27;;;;;;;3.68;100.00;97427.53;18246655;32;20488;-65
2022/11/24 04:59:22;;;;;;;5.30;1.37;;;;;;;3.89;100.00;97426.97;18245718;32;20086;-64
2022/11/24 05:09:25;;;;;;;2.63;1.23;;;;;;;4.06;100.00;97440.44;18244846;32;20378;-64
2022/11/24 05:20:07;;;;;;;4.33;1.20;;;;;;;4.24;100.00;97447.53;18237619;32;20070;-65
2022/11/24 05:30:42;;;;;;;0.73;0.50;;;;;;;4.43;100.00;97450.06;18191795;32;20066;-64
2022/11/24 05:40:45;;;;;;;3.17;0.60;;;;;;;4.58;100.00;97442.34;18242994;32;20086;-64
2022/11/24 05:51:01;;;;;;;1.80;0.60;;;;;;;4.65;100.00;97428.81;18242689;32;20100;-64
2022/11/24 06:01:10;;;;;;;5.77;0.80;;;;;;;4.78;100.00;97440.31;18241810;32;20439;-64
2022/11/24 06:11:17;;;;;;;4.80;0.83;;;;;;;4.89;100.00;97455.53;18241591;32;20066;-65
2022/11/24 06:21:29;;;;;;;;;;;;;;;4.95;100.00;97435.84;18241744;32;20108;-64
2022/11/24 06:31:32;;;;;;;3.33;0.63;;;;;;;4.83;100.00;97451.94;18239835;32;20265;-64
2022/11/24 06:41:35;;;;;;;2.30;0.70;;;;;;;4.88;100.00;97462.75;18240514;32;20143;-64
2022/11/24 06:51:39;;;;;;;3.17;0.80;;;;;;;5.00;100.00;97467.25;18240401;32;20120;-64
2022/11/24 07:01:43;;;;;;;4.47;1.00;;;;;;;5.13;100.00;97460.81;18240023;32;20405;-64
2022/11/24 07:11:46;;;;;;;4.43;1.20;;;;;;;5.25;100.00;97466.94;18239889;32;20101;-64
2022/11/24 07:22:21;;;;;;;5.67;1.50;;;;;;;5.38;100.00;97497.97;18148436;32;20054;-64
2022/11/24 07:32:24;;;;;;;2.73;0.83;;;;;;;5.53;100.00;97522.38;18251762;32;20092;-64
2022/11/24 07:43:00;;;;;;;5.10;1.17;;;;;;;5.62;100.00;97552.34;18156396;32;20066;-64
2022/11/24 07:53:03;;;;;;;2.97;0.57;;;;;;;5.76;100.00;97550.97;18236326;32;20055;-65
2022/11/24 08:03:06;;;;;;;3.70;1.10;;;;;;;5.87;100.00;97567.25;18249213;32;20516;-65
2022/11/24 08:13:18;;;;;;;2.50;0.60;;;;;;;6.01;100.00;97589.25;18235338;32;20096;-64
2022/11/24 08:23:22;;;;;;;3.90;1.10;;;;;;;6.16;100.00;97597.56;18248043;32;20339;-64
2022/11/24 08:33:25;;;;;;;2.07;0.47;;;;;;;6.39;100.00;97620.75;18247758;32;20073;-65
2022/11/24 08:43:28;;;;;;;5.37;1.40;;;;;;;6.78;100.00;97615.44;18233396;32;20089;-64
2022/11/24 08:54:03;;;;;;;3.70;1.20;;;;;;;7.13;100.00;97621.56;18235679;32;20105;-64
2022/11/24 09:04:15;;;;;;;3.53;1.27;;;;;;;7.58;100.00;97633.16;18245386;32;20085;-65
2022/11/24 09:14:18;;;;;;;2.80;0.93;;;;;;;7.97;100.00;97654.56;18230863;32;20062;-64
2022/11/24 09:24:21;;;;;;;3.43;0.60;;;;;;;8.19;100.00;97664.47;18231125;32;20049;-65
2022/11/24 09:34:24;;;;;;;2.97;0.77;;;;;;;8.58;100.00;97675.09;18242955;32;20076;-65
2022/11/24 09:45:42;;;;;;;4.77;1.10;;;;;;;8.53;100.00;97688.53;18109299;32;20071;-65
2022/11/24 10:07:14;;;;;;;4.70;1.10;;;;;;;8.45;100.00;97720.25;18196505;32;20070;-64
2022/11/24 10:29:32;;;;;;;5.90;1.10;;;;;;;8.85;100.00;97749.72;18241182;32;20379;-64
2022/11/24 10:40:26;;;;;;;7.77;1.83;;;;;;;9.07;100.00;97749.62;17922483;33;20072;-65
2022/11/24 10:51:49;;;;;;;5.57;1.13;;;;;;;9.35;100.00;97743.09;17801466;33;20080;-65
2022/11/24 11:01:53;;;;;;;4.63;1.13;;;;;;;9.33;100.00;97724.47;17800725;33;20112;-64
2022/11/24 11:34:39;;;;;;;5.23;0.80;;;;;;;9.07;100.00;97722.66;18239322;32;20078;-64
2022/11/24 11:45:21;;;;;;;4.83;1.00;;;;;;;9.48;95.65;97737.25;18225396;32;20392;-64
2022/11/24 12:18:49;;;;;;;5.30;0.73;;;;;;;8.90;100.00;97730.91;18176816;32;20071;-64
2022/11/24 12:29:50;;;;;;;5.60;1.17;;;;;;;9.16;99.81;97730.00;18040604;32;20091;-64
2022/11/24 12:51:46;;;;;;;3.97;0.90;;;;;;;9.21;100.00;97729.25;18086475;32;20467;-64
2022/11/24 13:02:03;;;;;;;2.80;0.83;;;;;;;9.12;100.00;97718.09;18180894;32;20054;-64
2022/11/24 13:12:14;;;;;;;4.00;0.80;;;;;;;9.00;100.00;97706.69;18180895;32;20063;-64
2022/11/24 13:22:24;;;;;;;3.30;0.67;;;;;;;8.91;100.00;97706.37;18169184;32;20062;-64
2022/11/24 13:32:30;;;;;;;1.83;0.50;;;;;;;8.85;100.00;97710.09;18168137;32;20058;-64
2022/11/24 13:42:59;;;;;;;1.27;0.23;;;;;;;8.87;100.00;97717.94;18181146;32;20113;-64
2022/11/24 13:53:26;;;;;;;1.33;0.50;;;;;;;8.79;100.00;97725.41;18180588;32;20477;-65
2022/11/24 14:03:35;;;;;;;3.90;0.90;;;;;;;8.96;100.00;97710.97;18180955;32;20046;-65
2022/11/24 14:13:38;;;;;;;2.37;0.60;;;;;;;9.13;100.00;97708.16;18228556;32;20104;-64
2022/11/24 14:23:44;;;;;;;0.93;0.37;;;;;;;9.24;100.00;97682.84;18241406;32;20043;-65
2022/11/24 14:33:48;;;;;;;2.37;0.70;;;;;;;9.31;100.00;97677.22;18240984;32;20059;-64
2022/11/24 14:44:17;;;;;;;1.97;0.70;;;;;;;9.30;100.00;97670.19;18240198;32;20464;-64
2022/11/24 14:54:22;;;;;;;3.00;1.00;;;;;;;9.13;100.00;97660.37;18240335;32;20054;-64
2022/11/24 15:04:31;;;;;;;8.70;2.10;;;;;;;8.66;100.00;97642.28;18226043;32;20050;-65
2022/11/24 15:15:01;;;;;;;4.13;1.40;;;;;;;8.34;100.00;97640.38;18240109;32;20084;-64
2022/11/24 15:25:34;;;;;;;2.73;1.47;;;;;;;7.78;100.00;97627.16;18239417;32;20077;-65
2022/11/24 15:35:37;;;;;;;2.33;1.10;;;;;;;7.29;100.00;97623.37;18242989;32;20103;-65
2022/11/24 15:45:40;;;;;;;3.60;1.17;;;;;;;6.87;100.00;97633.84;18251149;32;20131;-64
2022/11/24 15:55:43;;;;;;;3.30;1.47;;;;;;;6.67;100.00;97629.78;18236589;32;20106;-65
2022/11/24 16:05:47;;;;;;;2.77;1.17;;;;;;;6.41;100.00;97640.13;18249153;32;20067;-64
2022/11/24 16:15:50;;;;;;;4.60;1.83;;;;;;;6.02;100.00;97645.37;18235539;32;20103;-64
2022/11/24 16:25:53;;;;;;;3.77;1.70;;;;;;;5.62;100.00;97631.97;18246890;32;20063;-64
2022/11/24 16:35:56;;;;;;;4.70;1.70;;;;;;;5.26;100.00;97654.34;18247657;32;20076;-65
2022/11/24 16:46:08;;;;;;;4.67;2.87;;;;;;;4.98;100.00;97673.03;18220917;32;20058;-65
2022/11/24 16:56:13;;;;;;;5.90;3.07;;;;;;;4.61;100.00;97668.69;18246591;32;20073;-64
2022/11/24 17:06:16;;;;;;;;;;;;;;;4.33;100.00;97640.72;18244472;32;20059;-64
2022/11/24 17:16:21;;;;;;;5.47;2.67;;;;;;;4.15;100.00;97622.06;18245130;32;19950;-64
2022/11/24 17:26:25;;;;;;;;;;;;;;;3.98;100.00;97636.09;18244294;32;20446;-64
2022/11/24 17:36:30;;;;;;;16.37;7.77;;;;;;;3.81;100.00;97632.41;18243952;32;19976;-64
2022/11/24 17:46:33;;;;;;;8.38;3.37;;;;;;;3.66;100.00;97625.63;18243296;32;20495;-64
2022/11/24 17:56:39;;;;;;;6.97;3.03;;;;;;;3.53;100.00;97625.81;18241934;32;20110;-64
2022/11/24 18:06:42;;;;;;;4.47;2.47;;;;;;;3.36;100.00;97602.38;18241955;32;20102;-64
2022/11/24 18:16:45;;;;;;;3.00;1.57;;;;;;;3.23;100.00;97597.19;18216139;32;20058;-64
2022/11/24 18:26:49;;;;;;;5.00;1.70;;;;;;;3.12;100.00;97611.31;18241396;32;20366;-64
2022/11/24 18:36:52;;;;;;;2.60;1.50;;;;;;;2.97;100.00;97603.66;18241056;32;20089;-64
2022/11/24 18:46:55;;;;;;;2.97;1.63;;;;;;;2.83;100.00;97598.44;18240510;32;20058;-64
2022/11/24 18:56:58;;;;;;;8.10;2.10;;;;;;;2.75;100.00;97605.94;18240200;32;20072;-65
2022/11/24 19:07:04;;;;;;;5.57;3.40;;;;;;;2.67;100.00;97609.72;18227684;32;20104;-64
2022/11/24 19:17:07;;;;;;;4.10;2.50;;;;;;;2.57;100.00;97604.88;18252587;32;20103;-64
2022/11/24 19:27:10;;;;;;;5.50;2.60;;;;;;;2.43;100.00;97598.03;18238134;32;20058;-64
2022/11/24 19:37:12;;;;;;;5.90;2.77;;;;;;;2.45;100.00;97617.31;18251519;32;20076;-64
2022/11/24 19:47:15;;;;;;;4.93;1.90;;;;;;;2.41;100.00;97602.78;18250867;32;20089;-65
2022/11/24 19:57:18;;;;;;;4.67;1.83;;;;;;;2.36;100.00;97601.56;18250244;32;20054;-65
2022/11/24 20:07:21;;;;;;;3.97;2.47;;;;;;;2.34;100.00;97605.50;18235388;32;20094;-65
2022/11/24 20:17:24;;;;;;;6.77;3.43;;;;;;;2.29;100.00;97598.16;18235038;32;20063;-65
2022/11/24 20:27:27;;;;;;;4.20;2.50;;;;;;;2.31;100.00;97582.72;18247872;32;20074;-65
2022/11/24 20:37:30;;;;;;;5.97;2.63;;;;;;;2.34;100.00;97576.16;18247883;32;20054;-65
2022/11/24 20:47:33;;;;;;;6.80;2.77;;;;;;;2.34;100.00;97570.81;18246821;32;20488;-64
2022/11/24 20:57:36;;;;;;;3.83;2.67;;;;;;;2.37;100.00;97571.19;18246230;32;20435;-65
2022/11/24 21:07:39;;;;;;;7.50;3.30;;;;;;;2.51;100.00;97565.75;18245194;32;20058;-65
2022/11/24 21:17:42;;;;;;;4.07;2.90;;;;;;;2.62;100.00;97583.69;18245086;32;20116;-65
2022/11/24 21:27:44;;;;;;;4.17;3.30;;;;;;;2.71;100.00;97568.19;18244211;32;20108;-65
2022/11/24 21:37:47;;;;;;;6.17;3.40;;;;;;;2.79;100.00;97577.75;18241968;32;20388;-65
2022/11/24 21:47:50;;;;;;;8.23;3.47;;;;;;;2.87;100.00;97582.81;18243076;32;20062;-65
2022/11/24 21:58:53;;;;;;;4.50;3.13;;;;;;;3.55;100.00;97599.69;18473976;32;20067;-63
2022/11/24 22:08:55;;;;;;;5.00;3.60;;;;;;;3.55;100.00;97599.69;18411742;32;20062;-63
2022/11/24 22:18:59;;;;;;;5.97;4.30;;;;;;;2.99;100.00;97607.75;18411204;32;20457;-63
2022/11/24 22:29:02;;;;;;;6.40;4.27;;;;;;;3.03;100.00;97627.62;18410403;32;20441;-64
2022/11/24 22:39:05;;;;;;;7.17;4.83;;;;;;;3.08;100.00;97631.47;18410248;32;20057;-63
2022/11/24 22:49:08;;;;;;;7.97;4.33;;;;;;;3.03;100.00;97632.16;18395134;32;20069;-63
2022/11/24 22:59:11;;;;;;;5.23;3.03;;;;;;;2.94;100.00;97620.94;18409280;32;20050;-63
2022/11/24 23:09:13;;;;;;;3.83;3.13;;;;;;;2.97;100.00;97619.69;18370342;32;20077;-63
2022/11/24 23:19:16;;;;;;;4.30;3.33;;;;;;;3.00;100.00;97625.41;18365788;32;20057;-64
2022/11/24 23:29:19;;;;;;;6.80;3.10;;;;;;;3.03;100.00;97626.81;18364908;32;20053;-63
2022/11/24 23:39:23;;;;;;;4.43;2.93;;;;;;;3.05;100.00;97617.53;18364674;32;20074;-63
2022/11/24 23:49:25;;;;;;;4.70;3.17;;;;;;;3.10;100.00;97632.91;18363550;32;20104;-64
2022/11/24 23:59:28;;;;;;;4.63;3.47;;;;;;;3.11;100.00;97620.34;18364242;32;20498;-63
